sensor_id;sensor_type;location;lat;lon;timestamp;P1;durP1;ratioP1;P2;durP2;ratioP2
26163;SDS011;13914;48.178;11.716;2023-02-12T00:00:34;28.70;;;16.75;;
26163;SDS011;13914;48.178;11.716;2023-02-12T00:03:29;43.50;;;17.25;;
26163;SDS011;13914;48.178;11.716;2023-02-12T00:06:14;36.10;;;17.52;;
26163;SDS011;13914;48.178;11.716;2023-02-12T00:09:00;38.30;;;17.90;;
26163;SDS011;13914;48.178;11.716;2023-02-12T00:11:46;33.72;;;17.08;;
26163;SDS011;13914;48.178;11.716;2023-02-12T00:14:31;30.75;;;17.55;;
26163;SDS011;13914;48.178;11.716;2023-02-12T00:17:17;32.58;;;18.15;;
26163;SDS011;13914;48.178;11.716;2023-02-12T00:20:03;38.15;;;19.55;;
26163;SDS011;13914;48.178;11.716;2023-02-12T00:22:49;32.10;;;17.67;;
26163;SDS011;13914;48.178;11.716;2023-02-12T00:25:39;34.33;;;17.88;;
26163;SDS011;13914;48.178;11.716;2023-02-12T00:28:26;39.33;;;18.77;;
26163;SDS011;13914;48.178;11.716;2023-02-12T00:31:13;42.13;;;19.17;;
26163;SDS011;13914;48.178;11.716;2023-02-12T00:34:02;40.17;;;18.63;;
26163;SDS011;13914;48.178;11.716;2023-02-12T00:36:48;40.08;;;19.25;;
26163;SDS011;13914;48.178;11.716;2023-02-12T00:39:34;36.67;;;17.48;;
26163;SDS011;13914;48.178;11.716;2023-02-12T00:42:23;32.80;;;18.00;;
26163;SDS011;13914;48.178;11.716;2023-02-12T00:45:09;35.70;;;17.70;;
26163;SDS011;13914;48.178;11.716;2023-02-12T00:47:54;36.72;;;17.58;;
26163;SDS011;13914;48.178;11.716;2023-02-12T00:50:39;36.80;;;17.45;;
26163;SDS011;13914;48.178;11.716;2023-02-12T00:53:30;31.90;;;16.20;;
26163;SDS011;13914;48.178;11.716;2023-02-12T00:56:17;40.50;;;17.63;;
26163;SDS011;13914;48.178;11.716;2023-02-12T00:59:06;39.05;;;18.67;;
26163;SDS011;13914;48.178;11.716;2023-02-12T01:04:37;35.97;;;16.95;;
26163;SDS011;13914;48.178;11.716;2023-02-12T01:07:24;40.60;;;19.20;;
26163;SDS011;13914;48.178;11.716;2023-02-12T01:10:10;40.17;;;19.52;;
26163;SDS011;13914;48.178;11.716;2023-02-12T01:18:26;39.78;;;17.90;;
26163;SDS011;13914;48.178;11.716;2023-02-12T01:21:18;39.70;;;18.98;;
26163;SDS011;13914;48.178;11.716;2023-02-12T01:24:12;35.88;;;16.90;;
26163;SDS011;13914;48.178;11.716;2023-02-12T01:26:57;41.45;;;19.50;;
26163;SDS011;13914;48.178;11.716;2023-02-12T01:32:31;42.58;;;18.73;;
26163;SDS011;13914;48.178;11.716;2023-02-12T01:35:16;41.55;;;20.00;;
26163;SDS011;13914;48.178;11.716;2023-02-12T01:38:02;39.83;;;19.43;;
26163;SDS011;13914;48.178;11.716;2023-02-12T01:40:48;35.65;;;18.20;;
26163;SDS011;13914;48.178;11.716;2023-02-12T01:43:34;46.45;;;20.13;;
26163;SDS011;13914;48.178;11.716;2023-02-12T01:46:21;43.45;;;20.83;;
26163;SDS011;13914;48.178;11.716;2023-02-12T01:49:29;41.63;;;21.08;;
26163;SDS011;13914;48.178;11.716;2023-02-12T01:52:31;44.97;;;20.63;;
26163;SDS011;13914;48.178;11.716;2023-02-12T01:55:22;37.80;;;18.38;;
26163;SDS011;13914;48.178;11.716;2023-02-12T01:58:10;45.78;;;20.65;;
26163;SDS011;13914;48.178;11.716;2023-02-12T02:00:58;42.45;;;20.40;;
26163;SDS011;13914;48.178;11.716;2023-02-12T02:03:50;39.65;;;20.77;;
26163;SDS011;13914;48.178;11.716;2023-02-12T02:06:48;45.35;;;19.95;;
26163;SDS011;13914;48.178;11.716;2023-02-12T02:09:39;41.85;;;19.08;;
26163;SDS011;13914;48.178;11.716;2023-02-12T02:12:27;43.45;;;20.80;;
26163;SDS011;13914;48.178;11.716;2023-02-12T02:15:34;44.25;;;19.70;;
26163;SDS011;13914;48.178;11.716;2023-02-12T02:18:33;39.40;;;19.00;;
26163;SDS011;13914;48.178;11.716;2023-02-12T02:22:01;44.67;;;20.23;;
26163;SDS011;13914;48.178;11.716;2023-02-12T02:32:12;30.17;;;16.67;;
26163;SDS011;13914;48.178;11.716;2023-02-12T02:35:31;43.47;;;20.33;;
26163;SDS011;13914;48.178;11.716;2023-02-12T02:45:03;38.35;;;18.58;;
26163;SDS011;13914;48.178;11.716;2023-02-12T02:48:31;39.33;;;19.70;;
26163;SDS011;13914;48.178;11.716;2023-02-12T02:51:28;48.95;;;23.50;;
26163;SDS011;13914;48.178;11.716;2023-02-12T02:54:20;40.38;;;20.13;;
26163;SDS011;13914;48.178;11.716;2023-02-12T02:57:16;40.40;;;18.98;;
26163;SDS011;13914;48.178;11.716;2023-02-12T03:00:33;37.72;;;17.55;;
26163;SDS011;13914;48.178;11.716;2023-02-12T03:03:37;37.97;;;19.90;;
26163;SDS011;13914;48.178;11.716;2023-02-12T03:07:06;43.15;;;20.55;;
26163;SDS011;13914;48.178;11.716;2023-02-12T03:10:10;45.00;;;21.35;;
26163;SDS011;13914;48.178;11.716;2023-02-12T03:13:06;38.53;;;19.88;;
26163;SDS011;13914;48.178;11.716;2023-02-12T03:19:25;39.33;;;19.35;;
26163;SDS011;13914;48.178;11.716;2023-02-12T03:22:30;42.80;;;20.23;;
26163;SDS011;13914;48.178;11.716;2023-02-12T03:25:25;40.08;;;19.65;;
26163;SDS011;13914;48.178;11.716;2023-02-12T03:28:28;42.42;;;22.08;;
26163;SDS011;13914;48.178;11.716;2023-02-12T03:34:45;46.35;;;21.40;;
26163;SDS011;13914;48.178;11.716;2023-02-12T03:44:32;40.78;;;20.50;;
26163;SDS011;13914;48.178;11.716;2023-02-12T03:47:56;45.75;;;21.60;;
26163;SDS011;13914;48.178;11.716;2023-02-12T03:54:15;29.52;;;16.52;;
26163;SDS011;13914;48.178;11.716;2023-02-12T03:57:11;34.40;;;18.17;;
26163;SDS011;13914;48.178;11.716;2023-02-12T04:00:05;35.88;;;17.45;;
26163;SDS011;13914;48.178;11.716;2023-02-12T04:03:03;37.13;;;19.77;;
26163;SDS011;13914;48.178;11.716;2023-02-12T04:05:52;41.30;;;20.80;;
26163;SDS011;13914;48.178;11.716;2023-02-12T04:08:38;40.53;;;20.75;;
26163;SDS011;13914;48.178;11.716;2023-02-12T04:11:29;43.40;;;19.92;;
26163;SDS011;13914;48.178;11.716;2023-02-12T04:18:32;37.83;;;17.70;;
26163;SDS011;13914;48.178;11.716;2023-02-12T04:41:24;43.25;;;19.70;;
26163;SDS011;13914;48.178;11.716;2023-02-12T04:44:21;40.75;;;21.55;;
26163;SDS011;13914;48.178;11.716;2023-02-12T04:47:12;41.33;;;19.40;;
26163;SDS011;13914;48.178;11.716;2023-02-12T04:49:59;39.10;;;19.60;;
26163;SDS011;13914;48.178;11.716;2023-02-12T04:52:44;38.10;;;19.48;;
26163;SDS011;13914;48.178;11.716;2023-02-12T04:55:31;34.42;;;17.40;;
26163;SDS011;13914;48.178;11.716;2023-02-12T04:58:18;27.95;;;15.02;;
26163;SDS011;13914;48.178;11.716;2023-02-12T05:01:05;40.63;;;21.50;;
26163;SDS011;13914;48.178;11.716;2023-02-12T05:03:53;30.52;;;16.05;;
26163;SDS011;13914;48.178;11.716;2023-02-12T05:06:38;24.95;;;13.80;;
26163;SDS011;13914;48.178;11.716;2023-02-12T05:09:24;31.63;;;16.05;;
26163;SDS011;13914;48.178;11.716;2023-02-12T05:12:09;36.97;;;18.30;;
26163;SDS011;13914;48.178;11.716;2023-02-12T05:14:56;42.28;;;21.67;;
26163;SDS011;13914;48.178;11.716;2023-02-12T05:17:42;38.72;;;19.73;;
26163;SDS011;13914;48.178;11.716;2023-02-12T05:20:30;29.63;;;15.82;;
26163;SDS011;13914;48.178;11.716;2023-02-12T05:23:16;27.98;;;14.30;;
26163;SDS011;13914;48.178;11.716;2023-02-12T05:26:01;36.70;;;18.45;;
26163;SDS011;13914;48.178;11.716;2023-02-12T05:28:50;45.28;;;21.38;;
26163;SDS011;13914;48.178;11.716;2023-02-12T05:31:38;38.72;;;19.92;;
26163;SDS011;13914;48.178;11.716;2023-02-12T05:34:25;27.00;;;15.15;;
26163;SDS011;13914;48.178;11.716;2023-02-12T05:37:11;27.95;;;14.48;;
26163;SDS011;13914;48.178;11.716;2023-02-12T05:39:57;33.92;;;17.15;;
26163;SDS011;13914;48.178;11.716;2023-02-12T05:42:43;36.95;;;17.55;;
26163;SDS011;13914;48.178;11.716;2023-02-12T05:45:29;29.75;;;15.52;;
26163;SDS011;13914;48.178;11.716;2023-02-12T05:48:16;32.80;;;17.25;;
26163;SDS011;13914;48.178;11.716;2023-02-12T05:51:15;32.30;;;16.08;;
26163;SDS011;13914;48.178;11.716;2023-02-12T05:54:08;26.38;;;13.82;;
26163;SDS011;13914;48.178;11.716;2023-02-12T05:56:55;35.33;;;16.52;;
26163;SDS011;13914;48.178;11.716;2023-02-12T05:59:41;25.13;;;13.55;;
26163;SDS011;13914;48.178;11.716;2023-02-12T06:02:26;25.80;;;14.27;;
26163;SDS011;13914;48.178;11.716;2023-02-12T06:05:12;24.27;;;13.35;;
26163;SDS011;13914;48.178;11.716;2023-02-12T06:07:59;32.00;;;15.15;;
26163;SDS011;13914;48.178;11.716;2023-02-12T06:10:45;43.08;;;19.77;;
26163;SDS011;13914;48.178;11.716;2023-02-12T06:13:31;28.98;;;16.10;;
26163;SDS011;13914;48.178;11.716;2023-02-12T06:16:21;35.65;;;17.33;;
26163;SDS011;13914;48.178;11.716;2023-02-12T06:19:13;29.85;;;15.45;;
26163;SDS011;13914;48.178;11.716;2023-02-12T06:21:59;37.25;;;16.48;;
26163;SDS011;13914;48.178;11.716;2023-02-12T06:24:45;25.77;;;14.27;;
26163;SDS011;13914;48.178;11.716;2023-02-12T06:27:30;43.20;;;20.83;;
26163;SDS011;13914;48.178;11.716;2023-02-12T06:30:14;41.20;;;18.67;;
26163;SDS011;13914;48.178;11.716;2023-02-12T06:35:46;36.92;;;18.08;;
26163;SDS011;13914;48.178;11.716;2023-02-12T06:38:33;45.75;;;20.13;;
26163;SDS011;13914;48.178;11.716;2023-02-12T06:41:19;43.97;;;20.33;;
26163;SDS011;13914;48.178;11.716;2023-02-12T06:44:07;30.65;;;15.32;;
26163;SDS011;13914;48.178;11.716;2023-02-12T06:46:54;32.78;;;16.40;;
26163;SDS011;13914;48.178;11.716;2023-02-12T06:49:42;25.52;;;13.55;;
26163;SDS011;13914;48.178;11.716;2023-02-12T06:52:29;37.13;;;18.42;;
26163;SDS011;13914;48.178;11.716;2023-02-12T06:55:16;45.90;;;21.92;;
26163;SDS011;13914;48.178;11.716;2023-02-12T06:58:03;47.63;;;21.70;;
26163;SDS011;13914;48.178;11.716;2023-02-12T07:00:49;42.40;;;19.35;;
26163;SDS011;13914;48.178;11.716;2023-02-12T07:03:36;47.65;;;21.15;;
26163;SDS011;13914;48.178;11.716;2023-02-12T07:06:24;50.92;;;20.98;;
26163;SDS011;13914;48.178;11.716;2023-02-12T07:09:20;43.83;;;18.23;;
26163;SDS011;13914;48.178;11.716;2023-02-12T07:12:06;38.30;;;18.60;;
26163;SDS011;13914;48.178;11.716;2023-02-12T07:14:52;45.33;;;20.50;;
26163;SDS011;13914;48.178;11.716;2023-02-12T07:17:37;48.30;;;21.70;;
26163;SDS011;13914;48.178;11.716;2023-02-12T07:20:22;47.03;;;20.52;;
26163;SDS011;13914;48.178;11.716;2023-02-12T07:23:10;34.00;;;16.50;;
26163;SDS011;13914;48.178;11.716;2023-02-12T07:26:00;51.15;;;25.23;;
26163;SDS011;13914;48.178;11.716;2023-02-12T07:28:49;80.40;;;37.30;;
26163;SDS011;13914;48.178;11.716;2023-02-12T07:31:35;50.20;;;24.60;;
26163;SDS011;13914;48.178;11.716;2023-02-12T07:34:21;43.92;;;21.73;;
26163;SDS011;13914;48.178;11.716;2023-02-12T07:37:07;51.70;;;21.88;;
26163;SDS011;13914;48.178;11.716;2023-02-12T07:39:53;42.78;;;21.75;;
26163;SDS011;13914;48.178;11.716;2023-02-12T07:42:39;58.47;;;27.98;;
26163;SDS011;13914;48.178;11.716;2023-02-12T07:45:25;36.50;;;17.52;;
26163;SDS011;13914;48.178;11.716;2023-02-12T07:48:09;31.45;;;14.60;;
26163;SDS011;13914;48.178;11.716;2023-02-12T07:51:01;46.83;;;21.13;;
26163;SDS011;13914;48.178;11.716;2023-02-12T07:53:56;46.53;;;23.38;;
26163;SDS011;13914;48.178;11.716;2023-02-12T07:56:41;49.58;;;23.30;;
26163;SDS011;13914;48.178;11.716;2023-02-12T07:59:30;30.85;;;16.00;;
26163;SDS011;13914;48.178;11.716;2023-02-12T08:02:17;37.25;;;18.65;;
26163;SDS011;13914;48.178;11.716;2023-02-12T08:05:03;45.67;;;20.45;;
26163;SDS011;13914;48.178;11.716;2023-02-12T08:07:51;55.05;;;24.60;;
26163;SDS011;13914;48.178;11.716;2023-02-12T08:10:36;59.22;;;24.40;;
26163;SDS011;13914;48.178;11.716;2023-02-12T08:13:23;47.60;;;22.58;;
26163;SDS011;13914;48.178;11.716;2023-02-12T08:16:10;49.03;;;24.75;;
26163;SDS011;13914;48.178;11.716;2023-02-12T08:19:00;61.05;;;25.58;;
26163;SDS011;13914;48.178;11.716;2023-02-12T08:21:47;34.95;;;17.33;;
26163;SDS011;13914;48.178;11.716;2023-02-12T08:24:36;55.88;;;27.23;;
26163;SDS011;13914;48.178;11.716;2023-02-12T08:27:20;40.67;;;20.23;;
26163;SDS011;13914;48.178;11.716;2023-02-12T08:30:06;57.70;;;24.08;;
26163;SDS011;13914;48.178;11.716;2023-02-12T08:32:53;43.33;;;20.27;;
26163;SDS011;13914;48.178;11.716;2023-02-12T08:35:38;54.63;;;24.27;;
26163;SDS011;13914;48.178;11.716;2023-02-12T08:38:23;49.92;;;22.48;;
26163;SDS011;13914;48.178;11.716;2023-02-12T08:41:13;40.47;;;19.02;;
26163;SDS011;13914;48.178;11.716;2023-02-12T08:44:03;59.63;;;24.00;;
26163;SDS011;13914;48.178;11.716;2023-02-12T08:46:51;65.53;;;26.45;;
26163;SDS011;13914;48.178;11.716;2023-02-12T08:49:43;45.72;;;20.85;;
26163;SDS011;13914;48.178;11.716;2023-02-12T08:52:28;41.47;;;20.38;;
26163;SDS011;13914;48.178;11.716;2023-02-12T08:55:15;49.28;;;23.50;;
26163;SDS011;13914;48.178;11.716;2023-02-12T08:58:01;55.53;;;25.05;;
26163;SDS011;13914;48.178;11.716;2023-02-12T09:00:48;57.13;;;26.25;;
26163;SDS011;13914;48.178;11.716;2023-02-12T09:03:35;43.65;;;21.67;;
26163;SDS011;13914;48.178;11.716;2023-02-12T09:06:21;48.25;;;22.15;;
26163;SDS011;13914;48.178;11.716;2023-02-12T09:09:07;45.22;;;20.48;;
26163;SDS011;13914;48.178;11.716;2023-02-12T09:20:10;43.63;;;19.73;;
26163;SDS011;13914;48.178;11.716;2023-02-12T09:25:43;37.00;;;16.25;;
26163;SDS011;13914;48.178;11.716;2023-02-12T09:28:29;44.55;;;21.50;;
26163;SDS011;13914;48.178;11.716;2023-02-12T09:31:17;48.67;;;21.75;;
26163;SDS011;13914;48.178;11.716;2023-02-12T09:34:06;56.47;;;24.20;;
26163;SDS011;13914;48.178;11.716;2023-02-12T09:36:50;49.13;;;22.95;;
26163;SDS011;13914;48.178;11.716;2023-02-12T09:39:36;48.40;;;23.20;;
26163;SDS011;13914;48.178;11.716;2023-02-12T09:42:30;43.83;;;22.15;;
26163;SDS011;13914;48.178;11.716;2023-02-12T09:45:33;38.70;;;18.15;;
26163;SDS011;13914;48.178;11.716;2023-02-12T09:51:44;42.97;;;20.38;;
26163;SDS011;13914;48.178;11.716;2023-02-12T09:54:38;42.80;;;19.20;;
26163;SDS011;13914;48.178;11.716;2023-02-12T09:57:30;40.47;;;18.67;;
26163;SDS011;13914;48.178;11.716;2023-02-12T10:00:27;37.75;;;18.48;;
26163;SDS011;13914;48.178;11.716;2023-02-12T10:03:15;37.17;;;17.90;;
26163;SDS011;13914;48.178;11.716;2023-02-12T10:06:04;38.30;;;18.75;;
26163;SDS011;13914;48.178;11.716;2023-02-12T10:09:10;36.92;;;18.13;;
26163;SDS011;13914;48.178;11.716;2023-02-12T10:12:38;32.25;;;16.52;;
26163;SDS011;13914;48.178;11.716;2023-02-12T10:22:44;35.45;;;17.63;;
26163;SDS011;13914;48.178;11.716;2023-02-12T10:26:07;24.98;;;14.43;;
26163;SDS011;13914;48.178;11.716;2023-02-12T10:29:19;27.85;;;13.85;;
26163;SDS011;13914;48.178;11.716;2023-02-12T10:32:33;19.58;;;9.60;;
26163;SDS011;13914;48.178;11.716;2023-02-12T10:35:20;16.00;;;8.25;;
26163;SDS011;13914;48.178;11.716;2023-02-12T10:38:13;16.00;;;8.15;;
26163;SDS011;13914;48.178;11.716;2023-02-12T10:41:20;23.90;;;12.00;;
26163;SDS011;13914;48.178;11.716;2023-02-12T10:44:10;4.38;;;2.13;;
26163;SDS011;13914;48.178;11.716;2023-02-12T10:46:56;13.30;;;5.80;;
26163;SDS011;13914;48.178;11.716;2023-02-12T10:49:42;12.43;;;6.35;;
26163;SDS011;13914;48.178;11.716;2023-02-12T10:55:38;7.45;;;4.28;;
26163;SDS011;13914;48.178;11.716;2023-02-12T10:58:23;13.30;;;6.95;;
26163;SDS011;13914;48.178;11.716;2023-02-12T11:07:15;7.72;;;4.10;;
26163;SDS011;13914;48.178;11.716;2023-02-12T11:12:45;9.13;;;4.88;;
26163;SDS011;13914;48.178;11.716;2023-02-12T11:16:05;5.45;;;2.90;;
26163;SDS011;13914;48.178;11.716;2023-02-12T11:18:45;7.75;;;4.00;;
26163;SDS011;13914;48.178;11.716;2023-02-12T11:22:09;8.70;;;3.65;;
26163;SDS011;13914;48.178;11.716;2023-02-12T11:25:09;10.30;;;4.80;;
26163;SDS011;13914;48.178;11.716;2023-02-12T11:28:05;9.73;;;4.97;;
26163;SDS011;13914;48.178;11.716;2023-02-12T11:34:18;13.70;;;4.60;;
26163;SDS011;13914;48.178;11.716;2023-02-12T11:37:06;8.07;;;3.58;;
26163;SDS011;13914;48.178;11.716;2023-02-12T11:40:04;9.98;;;5.03;;
26163;SDS011;13914;48.178;11.716;2023-02-12T11:43:18;8.40;;;4.60;;
26163;SDS011;13914;48.178;11.716;2023-02-12T11:46:03;4.55;;;2.50;;
26163;SDS011;13914;48.178;11.716;2023-02-12T11:48:52;8.07;;;2.55;;
26163;SDS011;13914;48.178;11.716;2023-02-12T11:51:45;7.25;;;3.90;;
26163;SDS011;13914;48.178;11.716;2023-02-12T11:54:38;7.13;;;2.70;;
26163;SDS011;13914;48.178;11.716;2023-02-12T11:57:50;5.25;;;2.75;;
26163;SDS011;13914;48.178;11.716;2023-02-12T12:00:49;4.82;;;2.40;;
26163;SDS011;13914;48.178;11.716;2023-02-12T12:04:27;5.10;;;2.10;;
26163;SDS011;13914;48.178;11.716;2023-02-12T12:10:38;10.60;;;4.25;;
26163;SDS011;13914;48.178;11.716;2023-02-12T12:13:56;10.43;;;4.72;;
26163;SDS011;13914;48.178;11.716;2023-02-12T12:17:02;13.60;;;5.25;;
26163;SDS011;13914;48.178;11.716;2023-02-12T12:20:51;14.90;;;7.10;;
26163;SDS011;13914;48.178;11.716;2023-02-12T12:23:57;14.93;;;7.13;;
26163;SDS011;13914;48.178;11.716;2023-02-12T12:27:01;8.82;;;4.82;;
26163;SDS011;13914;48.178;11.716;2023-02-12T12:33:42;13.43;;;6.55;;
26163;SDS011;13914;48.178;11.716;2023-02-12T12:43:13;14.45;;;7.57;;
26163;SDS011;13914;48.178;11.716;2023-02-12T12:47:06;14.57;;;7.20;;
26163;SDS011;13914;48.178;11.716;2023-02-12T12:57:27;11.07;;;6.00;;
26163;SDS011;13914;48.178;11.716;2023-02-12T13:00:45;13.27;;;6.22;;
26163;SDS011;13914;48.178;11.716;2023-02-12T13:07:29;14.20;;;7.63;;
26163;SDS011;13914;48.178;11.716;2023-02-12T13:10:49;18.15;;;9.18;;
26163;SDS011;13914;48.178;11.716;2023-02-12T13:14:34;18.25;;;9.80;;
26163;SDS011;13914;48.178;11.716;2023-02-12T13:18:19;16.55;;;7.07;;
26163;SDS011;13914;48.178;11.716;2023-02-12T13:21:39;20.35;;;10.57;;
26163;SDS011;13914;48.178;11.716;2023-02-12T13:24:49;16.25;;;7.28;;
26163;SDS011;13914;48.178;11.716;2023-02-12T13:27:59;22.27;;;10.20;;
26163;SDS011;13914;48.178;11.716;2023-02-12T13:30:57;21.98;;;10.27;;
26163;SDS011;13914;48.178;11.716;2023-02-12T13:33:52;22.42;;;11.43;;
26163;SDS011;13914;48.178;11.716;2023-02-12T13:36:46;21.80;;;10.98;;
26163;SDS011;13914;48.178;11.716;2023-02-12T13:39:28;25.40;;;10.35;;
26163;SDS011;13914;48.178;11.716;2023-02-12T13:42:37;21.98;;;10.20;;
26163;SDS011;13914;48.178;11.716;2023-02-12T13:46:13;21.02;;;10.27;;
26163;SDS011;13914;48.178;11.716;2023-02-12T13:52:58;21.83;;;10.23;;
26163;SDS011;13914;48.178;11.716;2023-02-12T13:56:01;21.10;;;9.52;;
26163;SDS011;13914;48.178;11.716;2023-02-12T14:02:23;13.15;;;7.25;;
26163;SDS011;13914;48.178;11.716;2023-02-12T14:05:26;22.85;;;10.25;;
26163;SDS011;13914;48.178;11.716;2023-02-12T14:08:30;19.53;;;9.47;;
26163;SDS011;13914;48.178;11.716;2023-02-12T14:11:27;18.85;;;8.73;;
26163;SDS011;13914;48.178;11.716;2023-02-12T14:14:12;20.50;;;9.55;;
26163;SDS011;13914;48.178;11.716;2023-02-12T14:20:38;21.75;;;10.35;;
26163;SDS011;13914;48.178;11.716;2023-02-12T14:23:24;15.30;;;7.97;;
26163;SDS011;13914;48.178;11.716;2023-02-12T14:26:12;15.50;;;7.32;;
26163;SDS011;13914;48.178;11.716;2023-02-12T14:29:13;14.88;;;7.45;;
26163;SDS011;13914;48.178;11.716;2023-02-12T14:35:41;13.18;;;6.40;;
26163;SDS011;13914;48.178;11.716;2023-02-12T14:41:23;13.13;;;5.97;;
26163;SDS011;13914;48.178;11.716;2023-02-12T14:50:24;11.90;;;5.78;;
26163;SDS011;13914;48.178;11.716;2023-02-12T14:53:25;16.05;;;7.30;;
26163;SDS011;13914;48.178;11.716;2023-02-12T14:56:21;13.98;;;5.88;;
26163;SDS011;13914;48.178;11.716;2023-02-12T14:59:06;10.15;;;4.95;;
26163;SDS011;13914;48.178;11.716;2023-02-12T15:02:02;21.40;;;5.45;;
26163;SDS011;13914;48.178;11.716;2023-02-12T15:04:50;12.15;;;6.65;;
26163;SDS011;13914;48.178;11.716;2023-02-12T15:07:44;12.63;;;6.75;;
26163;SDS011;13914;48.178;11.716;2023-02-12T15:14:23;15.40;;;7.00;;
26163;SDS011;13914;48.178;11.716;2023-02-12T15:17:28;14.43;;;5.72;;
26163;SDS011;13914;48.178;11.716;2023-02-12T15:20:23;13.50;;;6.43;;
26163;SDS011;13914;48.178;11.716;2023-02-12T15:26:24;14.40;;;6.47;;
26163;SDS011;13914;48.178;11.716;2023-02-12T15:29:35;15.38;;;7.65;;
26163;SDS011;13914;48.178;11.716;2023-02-12T15:32:29;14.32;;;6.82;;
26163;SDS011;13914;48.178;11.716;2023-02-12T15:35:24;15.20;;;6.05;;
26163;SDS011;13914;48.178;11.716;2023-02-12T15:38:20;13.48;;;6.40;;
26163;SDS011;13914;48.178;11.716;2023-02-12T15:44:24;18.65;;;7.03;;
26163;SDS011;13914;48.178;11.716;2023-02-12T15:47:15;17.85;;;8.23;;
26163;SDS011;13914;48.178;11.716;2023-02-12T15:50:12;20.30;;;8.55;;
26163;SDS011;13914;48.178;11.716;2023-02-12T15:53:01;18.17;;;8.93;;
26163;SDS011;13914;48.178;11.716;2023-02-12T15:55:47;19.17;;;9.10;;
26163;SDS011;13914;48.178;11.716;2023-02-12T15:58:41;27.58;;;10.75;;
26163;SDS011;13914;48.178;11.716;2023-02-12T16:01:35;24.08;;;11.15;;
26163;SDS011;13914;48.178;11.716;2023-02-12T16:04:23;20.45;;;9.05;;
26163;SDS011;13914;48.178;11.716;2023-02-12T16:07:15;28.25;;;11.68;;
26163;SDS011;13914;48.178;11.716;2023-02-12T16:10:02;28.90;;;14.48;;
26163;SDS011;13914;48.178;11.716;2023-02-12T16:12:49;27.52;;;13.30;;
26163;SDS011;13914;48.178;11.716;2023-02-12T16:15:35;27.85;;;12.35;;
26163;SDS011;13914;48.178;11.716;2023-02-12T16:18:27;24.50;;;11.00;;
26163;SDS011;13914;48.178;11.716;2023-02-12T17:47:48;30.95;;;13.77;;
26163;SDS011;13914;48.178;11.716;2023-02-12T17:50:34;32.20;;;14.20;;
26163;SDS011;13914;48.178;11.716;2023-02-12T17:53:24;35.05;;;15.35;;
26163;SDS011;13914;48.178;11.716;2023-02-12T17:56:10;35.17;;;15.55;;
26163;SDS011;13914;48.178;11.716;2023-02-12T17:59:02;33.72;;;14.32;;
26163;SDS011;13914;48.178;11.716;2023-02-12T18:01:48;38.22;;;15.55;;
26163;SDS011;13914;48.178;11.716;2023-02-12T18:04:35;33.55;;;14.63;;
26163;SDS011;13914;48.178;11.716;2023-02-12T18:07:21;46.03;;;20.08;;
26163;SDS011;13914;48.178;11.716;2023-02-12T18:10:06;35.35;;;14.88;;
26163;SDS011;13914;48.178;11.716;2023-02-12T18:12:59;39.10;;;16.02;;
26163;SDS011;13914;48.178;11.716;2023-02-12T18:15:46;36.40;;;15.70;;
26163;SDS011;13914;48.178;11.716;2023-02-12T18:18:34;36.83;;;16.20;;
26163;SDS011;13914;48.178;11.716;2023-02-12T18:41:25;37.00;;;15.65;;
26163;SDS011;13914;48.178;11.716;2023-02-12T18:44:23;35.90;;;15.23;;
26163;SDS011;13914;48.178;11.716;2023-02-12T18:47:11;34.78;;;16.55;;
26163;SDS011;13914;48.178;11.716;2023-02-12T18:52:41;37.47;;;14.95;;
26163;SDS011;13914;48.178;11.716;2023-02-12T18:55:28;32.30;;;13.55;;
26163;SDS011;13914;48.178;11.716;2023-02-12T18:58:13;34.20;;;13.98;;
26163;SDS011;13914;48.178;11.716;2023-02-12T19:00:59;34.58;;;14.90;;
26163;SDS011;13914;48.178;11.716;2023-02-12T19:06:36;29.52;;;14.18;;
26163;SDS011;13914;48.178;11.716;2023-02-12T19:09:27;33.27;;;14.03;;
26163;SDS011;13914;48.178;11.716;2023-02-12T19:12:13;30.42;;;13.85;;
26163;SDS011;13914;48.178;11.716;2023-02-12T19:15:00;35.47;;;14.82;;
26163;SDS011;13914;48.178;11.716;2023-02-12T19:17:53;33.75;;;14.40;;
26163;SDS011;13914;48.178;11.716;2023-02-12T19:20:38;32.25;;;13.98;;
26163;SDS011;13914;48.178;11.716;2023-02-12T19:23:27;30.83;;;13.40;;
26163;SDS011;13914;48.178;11.716;2023-02-12T19:26:13;27.05;;;13.07;;
26163;SDS011;13914;48.178;11.716;2023-02-12T19:29:03;36.20;;;14.88;;
26163;SDS011;13914;48.178;11.716;2023-02-12T19:31:48;28.58;;;12.93;;
26163;SDS011;13914;48.178;11.716;2023-02-12T19:34:35;27.55;;;12.73;;
26163;SDS011;13914;48.178;11.716;2023-02-12T19:37:22;29.48;;;12.43;;
26163;SDS011;13914;48.178;11.716;2023-02-12T19:40:11;33.58;;;13.95;;
26163;SDS011;13914;48.178;11.716;2023-02-12T19:42:58;29.95;;;12.85;;
26163;SDS011;13914;48.178;11.716;2023-02-12T19:45:46;29.70;;;12.45;;
26163;SDS011;13914;48.178;11.716;2023-02-12T19:48:33;31.52;;;14.30;;
26163;SDS011;13914;48.178;11.716;2023-02-12T19:51:19;29.58;;;13.20;;
26163;SDS011;13914;48.178;11.716;2023-02-12T19:54:04;29.73;;;12.63;;
26163;SDS011;13914;48.178;11.716;2023-02-12T19:56:51;27.05;;;12.20;;
26163;SDS011;13914;48.178;11.716;2023-02-12T19:59:37;27.23;;;11.68;;
26163;SDS011;13914;48.178;11.716;2023-02-12T20:02:24;29.83;;;13.45;;
26163;SDS011;13914;48.178;11.716;2023-02-12T20:05:08;25.73;;;12.77;;
26163;SDS011;13914;48.178;11.716;2023-02-12T20:07:53;36.97;;;14.27;;
26163;SDS011;13914;48.178;11.716;2023-02-12T20:10:40;31.98;;;12.95;;
26163;SDS011;13914;48.178;11.716;2023-02-12T20:13:25;25.42;;;11.43;;
26163;SDS011;13914;48.178;11.716;2023-02-12T20:16:15;29.85;;;13.70;;
26163;SDS011;13914;48.178;11.716;2023-02-12T20:19:07;30.95;;;13.80;;
26163;SDS011;13914;48.178;11.716;2023-02-12T20:22:00;30.95;;;13.05;;
26163;SDS011;13914;48.178;11.716;2023-02-12T20:24:47;25.13;;;11.68;;
26163;SDS011;13914;48.178;11.716;2023-02-12T20:27:33;26.95;;;12.77;;
26163;SDS011;13914;48.178;11.716;2023-02-12T20:30:18;31.95;;;13.23;;
26163;SDS011;13914;48.178;11.716;2023-02-12T20:33:06;35.53;;;12.85;;
26163;SDS011;13914;48.178;11.716;2023-02-12T20:35:56;32.42;;;13.15;;
26163;SDS011;13914;48.178;11.716;2023-02-12T20:38:43;30.58;;;11.38;;
26163;SDS011;13914;48.178;11.716;2023-02-12T20:41:27;37.13;;;12.23;;
26163;SDS011;13914;48.178;11.716;2023-02-12T20:44:16;38.65;;;13.27;;
26163;SDS011;13914;48.178;11.716;2023-02-12T20:47:02;34.20;;;12.85;;
26163;SDS011;13914;48.178;11.716;2023-02-12T20:52:35;53.10;;;10.77;;
26163;SDS011;13914;48.178;11.716;2023-02-12T20:55:25;51.78;;;12.05;;
26163;SDS011;13914;48.178;11.716;2023-02-12T20:58:09;48.80;;;10.80;;
26163;SDS011;13914;48.178;11.716;2023-02-12T21:01:05;43.15;;;11.93;;
26163;SDS011;13914;48.178;11.716;2023-02-12T21:04:00;59.70;;;12.48;;
26163;SDS011;13914;48.178;11.716;2023-02-12T21:06:53;39.88;;;11.43;;
26163;SDS011;13914;48.178;11.716;2023-02-12T21:09:43;55.60;;;12.18;;
26163;SDS011;13914;48.178;11.716;2023-02-12T21:12:30;59.50;;;12.85;;
26163;SDS011;13914;48.178;11.716;2023-02-12T21:15:19;30.17;;;13.07;;